Time;durP1;ratioP1;P1;durP2;ratioP2;P2;SDS_P1;SDS_P2;PMS_P1;PMS_P2;Temp;Humidity;BMP_temperature;BMP_pressure;BME280_temperature;BME280_humidity;BME280_pressure;Samples;Min_cycle;Max_cycle;Signal;HPM_P1;HPM_P2
2022/05/01 00:00:09;;;;;;;12.18;9.48;;;7.30;77.40;;;;;;5085236;28;20071;-64
2022/05/01 00:02:35;;;;;;;15.70;9.35;;;7.30;77.40;;;;;;5070022;28;20048;-64
2022/05/01 00:05:01;;;;;;;11.65;9.18;;;7.30;77.40;;;;;;5069264;28;20128;-64
2022/05/01 00:07:27;;;;;;;9.82;8.05;;;7.20;77.40;;;;;;5069162;28;20056;-64
2022/05/01 00:09:53;;;;;;;13.60;9.63;;;7.20;77.70;;;;;;5068387;28;20048;-64
2022/05/01 00:12:19;;;;;;;12.85;9.55;;;7.20;77.80;;;;;;5068581;28;20378;-65
2022/05/01 00:14:45;;;;;;;14.90;9.88;;;7.20;77.90;;;;;;5068865;28;20120;-64
2022/05/01 00:17:11;;;;;;;14.75;9.02;;;7.20;77.90;;;;;;5069486;28;20123;-64
2022/05/01 00:19:37;;;;;;;12.50;9.60;;;7.20;77.90;;;;;;5069411;28;20048;-65
2022/05/01 00:22:03;;;;;;;19.60;11.93;;;7.20;77.80;;;;;;5069512;28;20471;-64
2022/05/01 00:24:29;;;;;;;33.58;18.05;;;7.20;77.80;;;;;;5069259;28;20049;-64
2022/05/01 00:26:54;;;;;;;24.88;18.40;;;7.20;77.80;;;;;;5069461;28;20382;-63
2022/05/01 00:29:20;;;;;;;21.83;15.23;;;7.10;77.80;;;;;;5069018;28;20049;-65
2022/05/01 00:31:46;;;;;;;21.75;14.65;;;7.10;77.90;;;;;;5069115;28;20044;-66
2022/05/01 00:36:56;;;;;;;20.33;13.82;;;7.10;78.10;;;;;;5076356;28;20044;-64
2022/05/01 00:39:21;;;;;;;20.88;11.52;;;7.00;78.40;;;;;;5089559;28;20181;-66
2022/05/01 00:41:48;;;;;;;16.30;12.45;;;7.00;78.40;;;;;;5089362;28;20942;-64
2022/05/01 00:44:16;;;;;;;15.38;12.82;;;7.00;78.30;;;;;;5087851;28;20048;-65
2022/05/01 00:46:50;;;;;;;19.88;13.73;;;7.00;78.20;;;;;;5105586;28;20210;-65
2022/05/01 00:49:19;;;;;;;14.68;11.65;;;7.00;78.30;;;;;;5089306;28;20557;-64
2022/05/01 00:51:49;;;;;;;14.15;11.45;;;6.90;78.20;;;;;;5088697;28;20044;-64
2022/05/01 00:54:17;;;;;;;15.40;11.20;;;6.80;78.20;;;;;;5089558;28;20055;-65
2022/05/01 00:56:47;;;;;;;12.93;10.57;;;6.80;78.30;;;;;;5089304;28;20139;-65
2022/05/01 00:59:13;;;;;;;14.25;11.25;;;6.80;78.30;;;;;;5088459;28;20044;-65
2022/05/01 01:01:44;;;;;;;13.60;10.48;;;6.80;78.50;;;;;;5089115;28;20454;-65
2022/05/01 01:04:10;;;;;;;13.77;11.20;;;6.70;78.70;;;;;;5105189;28;20048;-65
2022/05/01 01:06:37;;;;;;;14.25;11.27;;;6.70;78.60;;;;;;5089089;28;20048;-65
2022/05/01 01:09:04;;;;;;;12.65;9.75;;;6.70;78.70;;;;;;5089105;28;20078;-64
2022/05/01 01:11:29;;;;;;;18.00;12.23;;;6.70;78.60;;;;;;5088596;28;20048;-65
2022/05/01 01:13:55;;;;;;;15.10;11.25;;;6.80;78.60;;;;;;5105035;28;20051;-64
2022/05/01 01:16:22;;;;;;;13.30;11.20;;;6.70;78.50;;;;;;5089150;28;20048;-65
2022/05/01 01:18:47;;;;;;;14.00;11.32;;;6.70;78.50;;;;;;5087584;28;20488;-66
2022/05/01 01:21:13;;;;;;;12.98;9.68;;;6.70;78.60;;;;;;5089125;28;20043;-66
2022/05/01 01:23:42;;;;;;;14.02;10.20;;;6.70;78.50;;;;;;5104824;28;20036;-65
2022/05/01 01:26:09;;;;;;;13.73;10.48;;;6.70;78.60;;;;;;5088866;28;20109;-65
2022/05/01 01:28:37;;;;;;;17.23;10.57;;;6.60;78.60;;;;;;5108825;28;20051;-66
2022/05/01 01:33:51;;;;;;;13.32;9.55;;;6.60;78.50;;;;;;5091622;28;20066;-66
2022/05/01 01:36:22;;;;;;;12.63;9.30;;;6.60;78.50;;;;;;5089983;28;20051;-66
2022/05/01 01:38:49;;;;;;;14.00;10.27;;;6.60;78.50;;;;;;5072701;28;20458;-66
2022/05/01 01:41:18;;;;;;;10.57;9.23;;;6.60;78.40;;;;;;5071164;28;20052;-66
2022/05/01 01:43:45;;;;;;;10.68;8.32;;;6.60;78.40;;;;;;5072454;28;20040;-63
2022/05/01 01:46:11;;;;;;;11.20;8.75;;;6.60;78.40;;;;;;5072047;28;20509;-64
2022/05/01 01:48:37;;;;;;;12.30;9.05;;;6.50;78.50;;;;;;5071427;28;20134;-64
2022/05/01 01:51:04;;;;;;;12.88;10.77;;;6.50;78.50;;;;;;5072146;28;20052;-64
2022/05/01 01:53:35;;;;;;;14.40;9.93;;;6.50;78.50;;;;;;5072103;28;20045;-65
2022/05/01 01:56:03;;;;;;;12.88;9.38;;;6.50;78.60;;;;;;5072537;28;20053;-65
2022/05/01 01:58:30;;;;;;;10.02;8.32;;;6.50;78.60;;;;;;5072119;28;20574;-64
2022/05/01 02:00:57;;;;;;;9.90;8.60;;;6.50;78.60;;;;;;5071217;28;20074;-63
2022/05/01 02:03:23;;;;;;;10.45;9.05;;;6.50;78.60;;;;;;5071869;28;20045;-63
2022/05/01 02:05:49;;;;;;;9.98;8.27;;;6.40;78.50;;;;;;5071858;28;20563;-64
2022/05/01 02:08:16;;;;;;;12.23;9.02;;;6.40;78.50;;;;;;5070670;28;20481;-63
2022/05/01 02:10:44;;;;;;;11.63;9.35;;;6.40;78.50;;;;;;5071960;28;20139;-64
2022/05/01 02:13:10;;;;;;;10.60;8.60;;;6.40;78.40;;;;;;5071688;28;20056;-65
2022/05/01 02:15:37;;;;;;;10.45;8.77;;;6.40;78.30;;;;;;5070300;28;20131;-64
2022/05/01 02:18:04;;;;;;;10.57;7.93;;;6.40;78.30;;;;;;5071704;28;20400;-66
2022/05/01 02:23:16;;;;;;;13.13;7.13;;;6.30;78.20;;;;;;5071601;28;20178;-64
2022/05/01 02:25:41;;;;;;;8.80;6.35;;;6.20;78.10;;;;;;5053603;28;20060;-65
2022/05/01 02:28:07;;;;;;;6.90;5.88;;;6.20;78.00;;;;;;5071304;28;20044;-65
2022/05/01 02:30:33;;;;;;;7.50;6.22;;;6.20;78.10;;;;;;5071626;28;20040;-66
2022/05/01 02:32:59;;;;;;;9.98;7.18;;;6.20;78.10;;;;;;5071473;28;20037;-66
2022/05/01 02:35:24;;;;;;;7.95;6.30;;;6.20;78.10;;;;;;5071398;28;20072;-64
2022/05/01 02:37:50;;;;;;;10.90;6.78;;;6.10;78.00;;;;;;5085596;28;20044;-65
2022/05/01 02:40:16;;;;;;;6.93;6.22;;;6.10;78.00;;;;;;5091538;28;20040;-65
2022/05/01 02:42:42;;;;;;;10.70;6.45;;;6.10;78.00;;;;;;5091650;28;20040;-65
2022/05/01 02:45:08;;;;;;;6.68;5.97;;;6.10;78.00;;;;;;5091222;28;20528;-65
2022/05/01 02:47:34;;;;;;;8.93;6.60;;;6.10;78.00;;;;;;5091509;28;20129;-66
2022/05/01 02:50:00;;;;;;;6.88;5.93;;;6.10;78.00;;;;;;5091060;28;20485;-66
2022/05/01 02:52:25;;;;;;;10.25;8.40;;;6.00;77.90;;;;;;5081378;28;20161;-68
2022/05/01 02:54:51;;;;;;;8.32;6.03;;;6.10;78.00;;;;;;5086804;28;20044;-66
2022/05/01 02:57:16;;;;;;;7.07;5.82;;;6.00;78.20;;;;;;5071164;28;20048;-65
2022/05/01 02:59:42;;;;;;;7.15;5.97;;;6.00;78.20;;;;;;5075473;28;20043;-66
2022/05/01 03:02:08;;;;;;;7.35;5.80;;;5.90;78.30;;;;;;5090469;28;20552;-66
2022/05/01 03:04:34;;;;;;;6.38;5.68;;;5.90;78.40;;;;;;5079550;28;20047;-66
2022/05/01 03:07:00;;;;;;;9.95;7.40;;;5.90;78.50;;;;;;5069254;28;20060;-66
2022/05/01 03:09:25;;;;;;;7.55;5.82;;;5.90;78.50;;;;;;5070846;28;20048;-66
2022/05/01 03:11:51;;;;;;;7.18;5.20;;;5.90;78.60;;;;;;5082955;28;20408;-66
2022/05/01 03:14:17;;;;;;;4.80;4.28;;;5.80;78.60;;;;;;5090533;28;20074;-64
2022/05/01 03:16:42;;;;;;;3.65;3.05;;;5.80;78.60;;;;;;5079431;28;20041;-64
2022/05/01 03:24:47;;;;;;;4.28;2.60;;;5.60;78.70;;;;;;5069657;28;20480;-65
2022/05/01 03:27:13;;;;;;;3.95;3.20;;;5.60;78.70;;;;;;5086299;28;20068;-64
2022/05/01 03:29:39;;;;;;;3.88;3.30;;;5.60;78.70;;;;;;5086164;28;20498;-64
2022/05/01 03:32:09;;;;;;;4.47;3.60;;;5.60;78.80;;;;;;5071867;28;20131;-66
2022/05/01 03:34:39;;;;;;;3.42;2.50;;;5.60;78.80;;;;;;5070208;28;20504;-64
2022/05/01 03:37:09;;;;;;;3.13;2.63;;;5.50;78.90;;;;;;5086291;28;20040;-65
2022/05/01 03:39:35;;;;;;;2.92;2.63;;;5.50;79.00;;;;;;5090625;28;20040;-65
2022/05/01 03:42:02;;;;;;;3.40;3.08;;;5.40;79.10;;;;;;5089471;28;20047;-65
2022/05/01 03:44:28;;;;;;;4.30;3.40;;;5.40;79.20;;;;;;5071353;28;20040;-65
2022/05/01 03:46:54;;;;;;;3.97;3.08;;;5.40;79.30;;;;;;5070137;28;20045;-65
2022/05/01 03:49:19;;;;;;;4.10;3.00;;;5.40;79.40;;;;;;5069183;28;20131;-65
2022/05/01 03:51:46;;;;;;;3.42;3.13;;;5.40;79.40;;;;;;5082282;28;20052;-65
2022/05/01 03:54:12;;;;;;;3.30;3.00;;;5.40;79.50;;;;;;5090260;28;20040;-64
2022/05/01 03:56:37;;;;;;;3.83;3.15;;;5.40;79.50;;;;;;5078157;28;20101;-64
2022/05/01 03:59:04;;;;;;;3.72;3.28;;;5.40;79.60;;;;;;5082931;28;20067;-65
2022/05/01 04:01:30;;;;;;;3.72;2.97;;;5.40;79.70;;;;;;5088519;28;20123;-65
2022/05/01 04:03:56;;;;;;;4.03;3.63;;;5.40;79.70;;;;;;5085231;28;20048;-64
2022/05/01 04:06:22;;;;;;;3.72;3.28;;;5.40;79.70;;;;;;5068728;28;20049;-65
2022/05/01 04:08:48;;;;;;;3.83;3.30;;;5.50;79.70;;;;;;5051810;28;20412;-65
2022/05/01 04:11:14;;;;;;;4.10;3.40;;;5.40;79.60;;;;;;5069493;28;20106;-65
2022/05/01 04:13:41;;;;;;;5.13;3.65;;;5.50;79.50;;;;;;5069359;28;20040;-65
2022/05/01 04:16:07;;;;;;;6.25;3.92;;;5.50;79.40;;;;;;5069493;28;20052;-65
2022/05/01 04:18:34;;;;;;;4.40;3.92;;;5.50;79.30;;;;;;5069452;28;20051;-66
2022/05/01 04:21:00;;;;;;;5.68;3.92;;;5.50;79.30;;;;;;5074936;28;20042;-65
2022/05/01 04:23:26;;;;;;;5.75;4.88;;;5.50;79.30;;;;;;5089777;28;20055;-66
2022/05/01 04:25:51;;;;;;;5.60;4.32;;;5.40;79.20;;;;;;5089294;28;20055;-65
2022/05/01 04:28:17;;;;;;;5.85;4.35;;;5.40;79.20;;;;;;5089368;28;20044;-66
2022/05/01 04:30:43;;;;;;;5.97;4.75;;;5.50;79.20;;;;;;5089666;28;20052;-66
2022/05/01 04:33:13;;;;;;;7.03;5.03;;;5.50;79.20;;;;;;5105538;28;20091;-65
2022/05/01 04:35:42;;;;;;;6.25;5.05;;;5.60;79.20;;;;;;5089537;28;20044;-65
2022/05/01 04:38:13;;;;;;;6.10;5.05;;;5.60;79.10;;;;;;5089542;28;20048;-65
2022/05/01 04:40:45;;;;;;;5.50;4.97;;;5.60;79.00;;;;;;5089325;28;20079;-65
2022/05/01 04:43:20;;;;;;;7.38;5.75;;;5.70;78.90;;;;;;5089341;28;20051;-65
2022/05/01 04:45:47;;;;;;;5.97;4.95;;;5.70;78.90;;;;;;5089217;28;20048;-65
2022/05/01 04:48:14;;;;;;;6.63;5.28;;;5.70;78.80;;;;;;5089283;28;20439;-66
2022/05/01 04:50:43;;;;;;;6.35;4.60;;;5.70;78.70;;;;;;5071534;28;20099;-66
2022/05/01 04:53:10;;;;;;;5.85;4.80;;;5.70;78.70;;;;;;5068956;28;20131;-65
2022/05/01 04:55:37;;;;;;;6.90;6.10;;;5.80;78.70;;;;;;5069489;28;20090;-66
2022/05/01 04:58:04;;;;;;;7.38;5.60;;;5.90;78.70;;;;;;5078080;28;20077;-66
2022/05/01 05:00:30;;;;;;;8.43;5.50;;;5.90;78.70;;;;;;5081662;28;20087;-66
2022/05/01 05:02:59;;;;;;;7.07;5.72;;;6.00;78.70;;;;;;5087065;28;20126;-65
2022/05/01 05:05:28;;;;;;;8.50;6.15;;;6.00;78.70;;;;;;5075342;28;20047;-66
2022/05/01 05:07:55;;;;;;;8.07;6.70;;;6.10;78.80;;;;;;5091700;28;20078;-65
2022/05/01 05:10:20;;;;;;;9.32;6.88;;;6.10;78.90;;;;;;5092912;28;20052;-66
2022/05/01 05:12:48;;;;;;;8.20;7.15;;;6.10;79.10;;;;;;5093337;28;20066;-66
2022/05/01 05:15:16;;;;;;;10.02;7.68;;;6.20;79.10;;;;;;5091332;28;20083;-65
2022/05/01 05:17:43;;;;;;;9.07;7.07;;;6.30;79.10;;;;;;5081856;28;20052;-65
2022/05/01 05:20:11;;;;;;;8.25;7.35;;;6.40;79.20;;;;;;5087934;28;20067;-65
2022/05/01 05:22:37;;;;;;;9.68;7.47;;;6.40;79.30;;;;;;5078345;28;20049;-66
2022/05/01 05:25:03;;;;;;;9.85;7.43;;;6.50;79.40;;;;;;5073788;28;20575;-66
2022/05/01 05:27:29;;;;;;;9.38;7.60;;;6.50;79.40;;;;;;5092434;28;20676;-66
2022/05/01 05:29:56;;;;;;;9.93;7.55;;;6.60;79.40;;;;;;5092950;28;20032;-66
2022/05/01 05:32:23;;;;;;;7.75;6.95;;;6.60;79.40;;;;;;5092845;28;20048;-65
2022/05/01 05:34:48;;;;;;;9.50;7.82;;;6.70;79.50;;;;;;5092597;28;20059;-66
2022/05/01 05:37:15;;;;;;;8.88;7.68;;;6.80;79.50;;;;;;5108639;28;20044;-65
2022/05/01 05:39:41;;;;;;;10.20;7.80;;;6.80;79.50;;;;;;5093035;28;20048;-66
2022/05/01 05:42:07;;;;;;;10.00;7.85;;;6.90;79.60;;;;;;5092482;28;20044;-65
2022/05/01 05:44:33;;;;;;;9.65;7.30;;;7.00;79.60;;;;;;5091101;28;20055;-65
2022/05/01 05:46:59;;;;;;;8.23;7.03;;;7.00;79.60;;;;;;5092791;28;20055;-64
2022/05/01 05:49:24;;;;;;;9.82;7.38;;;7.10;79.70;;;;;;5092508;28;20193;-66
2022/05/01 05:51:50;;;;;;;9.00;7.20;;;7.10;79.70;;;;;;5090253;28;20056;-65
2022/05/01 05:54:16;;;;;;;7.88;6.90;;;7.30;79.80;;;;;;5072386;28;20044;-65
2022/05/01 05:56:42;;;;;;;7.47;5.90;;;7.40;79.80;;;;;;5072979;28;20041;-65
2022/05/01 05:59:07;;;;;;;10.32;6.03;;;7.40;79.80;;;;;;5073268;28;20049;-66
2022/05/01 06:01:33;;;;;;;7.43;6.13;;;7.50;79.70;;;;;;5084707;28;20086;-66
2022/05/01 06:03:59;;;;;;;7.15;5.50;;;7.60;79.70;;;;;;5076363;28;20048;-64
2022/05/01 06:06:24;;;;;;;7.40;6.32;;;7.60;79.70;;;;;;5094807;28;20139;-64
2022/05/01 06:08:50;;;;;;;6.63;5.65;;;7.70;79.70;;;;;;5071822;28;20143;-65
2022/05/01 06:11:15;;;;;;;11.30;5.82;;;7.80;79.70;;;;;;5085907;28;20507;-65
2022/05/01 06:13:41;;;;;;;7.78;6.35;;;7.90;79.80;;;;;;5072374;28;20056;-65
2022/05/01 06:16:07;;;;;;;7.22;6.05;;;8.00;79.80;;;;;;5072902;28;20111;-66
2022/05/01 06:18:32;;;;;;;7.82;6.65;;;8.00;79.80;;;;;;5071947;28;20504;-66
2022/05/01 06:20:58;;;;;;;9.30;6.50;;;8.10;79.80;;;;;;5085132;28;20039;-65
2022/05/01 06:23:24;;;;;;;8.68;6.47;;;8.10;79.90;;;;;;5089937;28;20044;-65
2022/05/01 06:25:50;;;;;;;8.25;6.50;;;8.20;79.90;;;;;;5085633;28;20483;-64
2022/05/01 06:28:17;;;;;;;9.55;7.55;;;8.30;79.80;;;;;;5071156;28;20052;-65
2022/05/01 06:30:49;;;;;;;9.73;7.82;;;8.40;79.80;;;;;;5072436;28;20404;-65
2022/05/01 06:33:20;;;;;;;10.93;7.45;;;8.50;79.80;;;;;;5071686;28;20050;-65
2022/05/01 06:35:51;;;;;;;11.57;7.03;;;8.60;79.90;;;;;;5071461;28;20745;-65
2022/05/01 06:38:17;;;;;;;7.45;6.07;;;8.60;79.90;;;;;;5071166;28;20486;-66
2022/05/01 06:40:44;;;;;;;10.98;6.70;;;8.60;80.00;;;;;;5072305;28;20413;-66
2022/05/01 06:43:11;;;;;;;11.98;7.15;;;8.70;80.10;;;;;;5071162;28;20043;-66
2022/05/01 06:45:37;;;;;;;8.40;6.43;;;8.80;80.10;;;;;;5079398;28;20058;-66
2022/05/01 06:48:03;;;;;;;10.38;6.75;;;8.90;80.10;;;;;;5089486;28;20130;-66
2022/05/01 06:50:30;;;;;;;14.30;6.03;;;9.00;80.10;;;;;;5081989;28;20517;-65
2022/05/01 06:52:56;;;;;;;9.77;6.78;;;9.10;80.20;;;;;;5101806;28;20051;-65
2022/05/01 06:55:23;;;;;;;7.70;6.22;;;9.10;80.10;;;;;;5077925;28;20127;-65
2022/05/01 06:57:49;;;;;;;8.18;6.43;;;9.20;80.00;;;;;;5091275;28;20087;-66
2022/05/01 07:00:17;;;;;;;8.85;5.90;;;9.30;79.90;;;;;;5085473;28;20068;-66
2022/05/01 07:02:52;;;;;;;8.10;5.90;;;9.40;79.80;;;;;;5070439;28;20044;-66
2022/05/01 07:05:19;;;;;;;8.40;5.85;;;9.40;79.60;;;;;;5070916;28;20033;-66
2022/05/01 07:07:46;;;;;;;7.82;5.53;;;9.40;79.00;;;;;;5082562;28;20060;-66
2022/05/01 07:10:12;;;;;;;9.40;5.85;;;9.40;78.60;;;;;;5089271;28;20082;-66
2022/05/01 07:12:38;;;;;;;8.23;6.00;;;9.40;78.50;;;;;;5088248;28;20093;-66
2022/05/01 07:15:05;;;;;;;9.23;6.30;;;9.50;78.30;;;;;;5085137;28;20133;-66
2022/05/01 07:17:33;;;;;;;13.02;6.35;;;9.60;78.20;;;;;;5071910;28;20055;-66
2022/05/01 07:19:59;;;;;;;8.48;6.50;;;9.70;78.10;;;;;;5079437;28;20496;-66
2022/05/01 07:22:25;;;;;;;6.82;5.95;;;9.80;77.90;;;;;;5090107;28;20081;-66
2022/05/01 07:24:51;;;;;;;7.75;6.20;;;9.90;77.90;;;;;;5077837;28;20040;-66
2022/05/01 07:27:16;;;;;;;9.35;7.28;;;9.90;77.70;;;;;;5090429;28;20056;-66
2022/05/01 07:29:42;;;;;;;7.80;5.03;;;10.00;77.40;;;;;;5087068;28;20420;-66
2022/05/01 07:32:09;;;;;;;9.05;5.30;;;10.00;77.20;;;;;;5080608;28;20048;-66
2022/05/01 07:34:35;;;;;;;9.23;5.95;;;10.10;77.10;;;;;;5085323;28;20405;-66
2022/05/01 07:37:00;;;;;;;10.38;5.78;;;10.20;76.90;;;;;;5070241;28;20048;-66
2022/05/01 07:39:26;;;;;;;8.77;4.80;;;10.20;76.50;;;;;;5069274;28;20048;-66
2022/05/01 07:41:51;;;;;;;7.40;5.65;;;10.30;76.20;;;;;;5084060;28;20071;-65
2022/05/01 07:44:17;;;;;;;6.40;4.20;;;10.30;75.60;;;;;;5089123;28;20048;-66
2022/05/01 07:46:45;;;;;;;7.05;4.90;;;10.40;74.90;;;;;;5089839;28;20074;-66
2022/05/01 07:49:11;;;;;;;7.10;5.25;;;10.30;74.30;;;;;;5084715;28;20040;-66
2022/05/01 07:51:38;;;;;;;9.77;4.32;;;10.40;74.40;;;;;;5079965;28;20086;-65
2022/05/01 07:54:05;;;;;;;10.68;5.53;;;10.60;74.40;;;;;;5069307;28;20040;-66
2022/05/01 07:56:32;;;;;;;11.63;5.45;;;10.70;74.20;;;;;;5068786;28;20842;-66
2022/05/01 07:58:57;;;;;;;7.55;5.90;;;10.80;73.20;;;;;;5068661;28;20501;-66
2022/05/01 08:01:23;;;;;;;7.53;5.07;;;10.80;72.90;;;;;;5069913;28;20040;-65
2022/05/01 08:06:34;;;;;;;8.77;5.35;;;10.90;72.20;;;;;;5069448;28;20059;-66
2022/05/01 08:08:59;;;;;;;9.80;5.88;;;10.80;71.80;;;;;;5069414;28;20102;-66
2022/05/01 08:11:26;;;;;;;11.20;5.10;;;10.80;71.80;;;;;;5067779;28;20151;-66
2022/05/01 08:13:52;;;;;;;8.80;4.78;;;10.80;72.00;;;;;;5068339;28;20135;-65
2022/05/01 08:16:17;;;;;;;9.73;4.38;;;10.80;71.80;;;;;;5069593;28;20052;-66
2022/05/01 08:21:31;;;;;;;11.10;3.80;;;10.80;71.30;;;;;;5069598;28;20062;-65
2022/05/01 08:23:57;;;;;;;11.27;5.00;;;10.80;71.30;;;;;;5069322;28;20063;-66
2022/05/01 08:26:23;;;;;;;7.10;4.55;;;10.80;71.30;;;;;;5069424;28;20440;-67
2022/05/01 08:28:54;;;;;;;5.80;4.25;;;10.90;71.40;;;;;;5069207;28;20048;-66
2022/05/01 08:31:21;;;;;;;8.63;3.97;;;11.00;71.40;;;;;;5069442;28;20048;-66
2022/05/01 08:33:47;;;;;;;7.85;3.85;;;11.10;71.30;;;;;;5069133;28;20158;-66
2022/05/01 08:36:13;;;;;;;9.43;6.25;;;11.20;71.00;;;;;;5069270;28;20047;-66
2022/05/01 08:38:39;;;;;;;7.07;4.00;;;11.30;70.60;;;;;;5068896;28;20056;-67
2022/05/01 08:41:06;;;;;;;8.45;3.92;;;11.50;70.10;;;;;;5069094;28;20048;-67
2022/05/01 08:43:34;;;;;;;5.53;3.70;;;11.60;69.80;;;;;;5069344;28;20094;-67
2022/05/01 08:46:24;;;;;;;6.57;4.10;;;11.70;69.40;;;;;;5068115;28;20056;-67
2022/05/01 08:48:59;;;;;;;5.07;3.75;;;12.00;68.70;;;;;;5068891;28;20186;-67
2022/05/01 08:51:25;;;;;;;7.75;3.72;;;12.10;68.80;;;;;;5069067;28;20048;-67
2022/05/01 08:53:51;;;;;;;5.47;3.92;;;12.10;67.80;;;;;;5069293;28;20056;-67
2022/05/01 08:56:18;;;;;;;8.90;3.92;;;12.20;67.10;;;;;;5068909;28;20048;-67
2022/05/01 08:58:44;;;;;;;8.15;3.88;;;12.10;66.40;;;;;;5068951;28;20553;-67
2022/05/01 09:01:11;;;;;;;8.25;5.05;;;12.20;66.20;;;;;;5068797;28;20124;-67
2022/05/01 09:03:39;;;;;;;6.78;4.45;;;12.20;65.50;;;;;;5069280;28;20217;-67
2022/05/01 09:06:05;;;;;;;7.93;5.50;;;12.20;65.60;;;;;;5069134;28;20097;-68
2022/05/01 09:08:30;;;;;;;9.25;4.72;;;12.20;65.50;;;;;;5068846;28;20049;-67
2022/05/01 09:10:56;;;;;;;7.70;4.65;;;12.30;65.10;;;;;;5068494;28;20097;-67
2022/05/01 09:13:24;;;;;;;4.50;3.60;;;12.40;64.40;;;;;;5069082;28;20167;-67
2022/05/01 09:15:51;;;;;;;5.15;4.03;;;12.50;64.30;;;;;;5068999;28;20713;-67
2022/05/01 09:18:18;;;;;;;6.60;4.40;;;12.60;64.20;;;;;;5072197;28;20058;-68
2022/05/01 09:21:03;;;;;;;9.93;3.53;;;12.60;64.40;;;;;;5087949;28;20052;-68
2022/05/01 09:23:36;;;;;;;10.20;4.00;;;12.80;63.90;;;;;;5080804;28;20047;-68
2022/05/01 09:26:02;;;;;;;8.25;4.03;;;12.90;63.70;;;;;;5072588;28;20040;-69
2022/05/01 09:28:28;;;;;;;6.60;3.40;;;12.90;63.40;;;;;;5078963;28;20161;-69
2022/05/01 09:30:54;;;;;;;7.15;4.07;;;12.90;62.70;;;;;;5088334;28;20126;-68
2022/05/01 09:33:19;;;;;;;7.75;3.80;;;12.90;62.40;;;;;;5078260;28;20044;-67
2022/05/01 09:35:45;;;;;;;5.18;3.60;;;12.90;62.50;;;;;;5087219;28;20899;-67
2022/05/01 09:38:22;;;;;;;5.10;3.70;;;12.90;61.90;;;;;;5088645;28;20404;-67
2022/05/01 09:40:58;;;;;;;7.63;4.60;;;12.80;60.30;;;;;;5088119;28;20048;-68
2022/05/01 09:43:34;;;;;;;7.60;3.70;;;12.60;60.30;;;;;;5076915;28;20390;-68
2022/05/01 09:46:16;;;;;;;11.00;4.25;;;12.60;61.00;;;;;;5075568;28;20135;-67
2022/05/01 09:48:55;;;;;;;7.32;4.30;;;12.60;60.80;;;;;;5090155;28;20052;-69
2022/05/01 09:51:20;;;;;;;8.18;4.40;;;12.40;60.80;;;;;;5092060;28;20044;-69
2022/05/01 09:53:46;;;;;;;6.75;5.35;;;12.40;61.40;;;;;;5091523;28;20097;-68
2022/05/01 09:56:12;;;;;;;6.90;4.30;;;12.50;61.10;;;;;;5091976;28;20050;-67
2022/05/01 09:58:40;;;;;;;8.48;3.90;;;12.50;60.90;;;;;;5092471;28;20109;-67
2022/05/01 10:01:24;;;;;;;6.22;3.95;;;12.50;60.70;;;;;;5092043;28;20083;-67
2022/05/01 10:03:52;;;;;;;6.88;3.90;;;12.60;60.80;;;;;;5088152;28;20131;-67
2022/05/01 10:06:19;;;;;;;9.48;5.13;;;12.60;61.10;;;;;;5091753;28;20527;-67
2022/05/01 10:08:46;;;;;;;6.90;3.97;;;12.60;61.40;;;;;;5084431;28;20095;-67
2022/05/01 10:11:17;;;;;;;3.95;3.42;;;12.70;61.30;;;;;;5071180;28;20520;-67
2022/05/01 10:13:46;;;;;;;5.35;3.72;;;12.70;60.40;;;;;;5091143;28;20123;-67
2022/05/01 10:16:15;;;;;;;7.38;4.20;;;12.80;60.70;;;;;;5080403;28;20040;-68
2022/05/01 10:18:43;;;;;;;5.05;3.95;;;12.90;60.10;;;;;;5076860;28;20120;-67
2022/05/01 10:21:08;;;;;;;7.20;4.32;;;13.00;60.10;;;;;;5076519;28;20119;-67
2022/05/01 10:23:35;;;;;;;7.15;4.45;;;12.90;58.90;;;;;;5091378;28;20073;-68
2022/05/01 10:26:09;;;;;;;6.85;4.07;;;13.00;58.90;;;;;;5080793;28;20144;-69
2022/05/01 10:28:37;;;;;;;7.93;3.83;;;13.10;59.20;;;;;;5088541;28;20055;-68
2022/05/01 10:34:57;;;;;;;5.95;4.35;;;13.10;58.90;;;;;;5089609;28;20097;-68
2022/05/01 10:37:40;;;;;;;5.20;4.15;;;13.10;59.30;;;;;;5071636;28;20145;-69
2022/05/01 10:40:06;;;;;;;9.70;4.38;;;13.20;58.90;;;;;;5070451;28;20098;-68
2022/05/01 10:42:41;;;;;;;9.77;3.80;;;13.30;59.70;;;;;;5070840;28;20040;-68
2022/05/01 10:45:22;;;;;;;7.43;4.05;;;13.40;59.00;;;;;;5070529;28;20405;-68
2022/05/01 10:47:53;;;;;;;6.97;3.78;;;13.50;58.60;;;;;;5073940;28;20043;-67
2022/05/01 10:50:26;;;;;;;6.68;3.50;;;13.60;59.00;;;;;;5089454;28;20127;-67
2022/05/01 10:53:09;;;;;;;9.65;4.35;;;13.70;58.40;;;;;;5088357;28;20505;-67
2022/05/01 10:55:53;;;;;;;7.15;3.63;;;13.80;57.80;;;;;;5090813;28;20044;-67
2022/05/01 10:58:26;;;;;;;5.22;3.22;;;13.80;57.70;;;;;;5090827;28;20048;-67
2022/05/01 11:00:54;;;;;;;7.90;3.70;;;13.80;57.90;;;;;;5088135;28;20063;-68
2022/05/01 11:03:35;;;;;;;6.40;3.50;;;13.70;57.50;;;;;;5089796;28;20381;-69
2022/05/01 11:06:03;;;;;;;8.63;3.80;;;13.60;55.60;;;;;;5084003;28;20067;-67
2022/05/01 11:08:36;;;;;;;5.25;3.50;;;13.60;57.20;;;;;;5084357;28;20059;-68
2022/05/01 11:11:03;;;;;;;7.43;3.63;;;13.50;57.20;;;;;;5079053;28;20533;-67
2022/05/01 11:13:36;;;;;;;8.07;3.58;;;13.50;57.20;;;;;;5084641;28;20055;-68
2022/05/01 11:16:03;;;;;;;6.45;3.17;;;13.60;57.10;;;;;;5084063;28;20044;-69
2022/05/01 11:18:52;;;;;;;5.78;3.45;;;13.50;56.50;;;;;;5087419;28;20127;-69
2022/05/01 11:21:20;;;;;;;4.65;3.20;;;13.70;56.70;;;;;;5090846;28;20048;-69
2022/05/01 11:23:57;;;;;;;5.40;3.13;;;13.70;56.50;;;;;;5084702;28;20439;-68
2022/05/01 11:26:22;;;;;;;4.97;2.53;;;13.80;56.60;;;;;;5089014;28;20686;-68
2022/05/01 11:28:52;;;;;;;4.57;2.75;;;14.00;56.90;;;;;;5090322;28;20070;-68
2022/05/01 11:31:36;;;;;;;3.78;2.63;;;14.10;56.80;;;;;;5073899;28;20050;-68
2022/05/01 11:34:17;;;;;;;5.53;2.97;;;14.20;55.20;;;;;;5084361;28;20083;-68
2022/05/01 11:36:57;;;;;;;6.78;3.20;;;14.20;52.40;;;;;;5088582;28;20047;-67
2022/05/01 11:39:43;;;;;;;3.75;2.70;;;14.20;53.70;;;;;;5090455;28;20047;-67
2022/05/01 11:42:24;;;;;;;5.05;2.97;;;14.20;52.80;;;;;;5068107;28;20091;-68
2022/05/01 11:44:54;;;;;;;6.18;3.33;;;14.10;52.40;;;;;;5073054;28;20044;-68
2022/05/01 11:47:21;;;;;;;7.05;3.83;;;14.10;53.40;;;;;;5069713;28;20041;-67
2022/05/01 11:49:46;;;;;;;6.32;2.60;;;14.10;53.70;;;;;;5076247;28;20407;-68
2022/05/01 11:52:13;;;;;;;5.60;2.35;;;14.10;53.70;;;;;;5082893;28;20045;-68
2022/05/01 11:54:40;;;;;;;5.80;2.90;;;14.10;53.70;;;;;;5083623;28;20040;-67
2022/05/01 12:02:38;;;;;;;5.15;3.08;;;14.20;51.80;;;;;;5070313;28;20661;-68
2022/05/01 12:05:04;;;;;;;4.90;2.83;;;14.40;53.00;;;;;;5079012;28;20101;-66
2022/05/01 12:07:31;;;;;;;7.22;3.38;;;14.60;53.30;;;;;;5068458;28;20048;-66
2022/05/01 12:09:57;;;;;;;4.10;2.35;;;14.80;52.80;;;;;;5069020;28;20132;-66
2022/05/01 12:12:29;;;;;;;5.25;2.70;;;15.00;52.60;;;;;;5086875;28;20044;-67
2022/05/01 12:14:57;;;;;;;4.95;2.58;;;15.00;50.90;;;;;;5088709;28;20044;-67
2022/05/01 12:17:23;;;;;;;3.35;2.50;;;15.00;50.10;;;;;;5075691;28;20052;-67
2022/05/01 12:19:50;;;;;;;6.05;3.78;;;14.90;50.10;;;;;;5089349;28;20048;-68
2022/05/01 12:22:18;;;;;;;5.70;2.40;;;15.00;50.90;;;;;;5087992;28;20036;-67
2022/05/01 12:24:45;;;;;;;4.82;2.30;;;15.00;50.70;;;;;;5073684;28;20550;-68
2022/05/01 12:27:12;;;;;;;4.03;2.50;;;15.20;49.70;;;;;;5070050;28;20417;-68
2022/05/01 12:29:42;;;;;;;5.72;2.40;;;15.20;49.80;;;;;;5083767;28;20435;-66
2022/05/01 12:32:12;;;;;;;5.68;1.75;;;15.50;50.80;;;;;;5070267;28;20052;-66
2022/05/01 12:34:40;;;;;;;3.75;1.85;;;15.80;50.80;;;;;;5070417;28;20079;-68
2022/05/01 12:37:14;;;;;;;2.58;1.70;;;16.00;49.50;;;;;;5069339;28;20043;-69
2022/05/01 12:39:42;;;;;;;4.22;2.22;;;16.00;47.20;;;;;;5069024;28;20501;-68
2022/05/01 12:45:02;;;;;;;8.10;2.03;;;16.20;48.70;;;;;;5069388;28;20048;-69
2022/05/01 12:47:33;;;;;;;3.70;2.00;;;16.10;47.20;;;;;;5068965;28;20044;-69
2022/05/01 12:50:00;;;;;;;5.60;2.17;;;16.10;47.00;;;;;;5069460;28;20055;-68
2022/05/01 12:52:31;;;;;;;4.60;2.38;;;16.10;47.20;;;;;;5068585;28;20041;-68
2022/05/01 12:55:17;;;;;;;3.22;2.25;;;16.00;46.50;;;;;;5068622;28;20481;-68
2022/05/01 12:57:49;;;;;;;4.00;2.10;;;16.10;46.70;;;;;;5069141;28;20036;-67
2022/05/01 13:00:34;;;;;;;4.15;2.40;;;16.20;46.80;;;;;;5068849;28;20528;-67
2022/05/01 13:03:18;;;;;;;5.05;2.13;;;16.20;44.40;;;;;;5068708;28;20052;-68
2022/05/01 13:05:56;;;;;;;3.47;2.17;;;16.20;45.30;;;;;;5067987;28;20078;-67
2022/05/01 13:08:22;;;;;;;3.53;1.73;;;16.30;45.90;;;;;;5069010;28;20398;-68
2022/05/01 13:11:12;;;;;;;3.63;2.00;;;16.40;46.40;;;;;;5068771;28;20056;-68
2022/05/01 13:13:46;;;;;;;8.45;2.40;;;16.60;46.30;;;;;;5069348;28;20044;-68
2022/05/01 13:16:12;;;;;;;4.88;2.30;;;16.80;45.90;;;;;;5069111;28;20044;-68
2022/05/01 13:18:38;;;;;;;5.35;2.17;;;16.90;46.10;;;;;;5069009;28;20052;-68
2022/05/01 13:21:03;;;;;;;3.83;1.98;;;17.10;45.40;;;;;;5069034;28;20047;-68
2022/05/01 13:23:29;;;;;;;3.95;2.35;;;17.40;45.70;;;;;;5072085;28;20111;-68
2022/05/01 13:25:55;;;;;;;5.70;2.42;;;17.50;45.20;;;;;;5073967;28;20041;-68